Time;durP1;ratioP1;P1;durP2;ratioP2;P2;SDS_P1;SDS_P2;PMS_P1;PMS_P2;Temp;Humidity;BMP_temperature;BMP_pressure;BME280_temperature;BME280_humidity;BME280_pressure;Samples;Min_cycle;Max_cycle;Signal;HPM_P1;HPM_P2
2024/01/29 00:01:01;;;;;;;11.55;8.40;;;;;;;-144.26;100.00;64884.69;5013403;28;20118;-81
2024/01/29 00:03:27;;;;;;;11.70;8.13;;;;;;;-144.26;100.00;64884.69;5013512;28;20026;-81
2024/01/29 00:05:52;;;;;;;12.93;7.53;;;;;;;-144.26;100.00;64884.69;4995488;28;20077;-81
2024/01/29 00:08:17;;;;;;;11.73;8.68;;;;;;;-144.26;100.00;64884.69;5013445;28;20029;-81
2024/01/29 00:10:43;;;;;;;12.68;8.95;;;;;;;-144.26;100.00;64884.69;5013262;28;20050;-81
2024/01/29 00:13:08;;;;;;;13.40;8.75;;;;;;;-144.26;100.00;64884.69;5013316;28;20105;-80
2024/01/29 00:15:34;;;;;;;12.57;8.40;;;;;;;-144.26;100.00;64884.69;5013089;28;20030;-81
2024/01/29 00:18:00;;;;;;;12.50;8.60;;;;;;;-144.26;100.00;64884.69;5013162;28;20033;-81
2024/01/29 00:20:25;;;;;;;12.65;8.07;;;;;;;-144.26;100.00;64884.69;5013305;28;20111;-81
2024/01/29 00:22:50;;;;;;;11.70;8.20;;;;;;;-144.26;100.00;64884.69;5013426;28;20026;-81
2024/01/29 00:25:16;;;;;;;10.77;7.82;;;;;;;-144.26;100.00;64884.69;5012930;28;20030;-81
2024/01/29 00:27:41;;;;;;;11.88;8.52;;;;;;;-144.26;100.00;64884.69;5012912;28;20104;-79
2024/01/29 00:30:08;;;;;;;13.40;8.73;;;;;;;-144.26;100.00;64884.69;5012892;28;20033;-81
2024/01/29 00:32:33;;;;;;;11.40;8.38;;;;;;;-144.26;100.00;64884.69;5012856;28;20545;-81
2024/01/29 00:34:58;;;;;;;11.80;7.78;;;;;;;-144.26;100.00;64884.69;5012879;28;20098;-81
2024/01/29 00:37:26;;;;;;;11.20;8.23;;;;;;;-144.26;100.00;64884.69;5012955;28;20430;-81
2024/01/29 00:39:51;;;;;;;10.23;7.65;;;;;;;-144.26;100.00;64884.69;5012860;28;20115;-81
2024/01/29 00:42:17;;;;;;;11.32;8.13;;;;;;;-144.26;100.00;64884.69;5012841;28;20489;-81
2024/01/29 00:44:44;;;;;;;12.25;7.93;;;;;;;-144.26;100.00;64884.69;5012897;28;20030;-81
2024/01/29 00:47:10;;;;;;;11.73;7.88;;;;;;;-144.26;100.00;64884.69;5012647;28;20026;-80
2024/01/29 00:49:45;;;;;;;11.13;7.75;;;;;;;-144.26;100.00;64884.69;5012751;28;20032;-81
2024/01/29 00:52:15;;;;;;;10.65;8.02;;;;;;;-144.26;100.00;64884.69;5013035;28;20057;-81
2024/01/29 00:54:40;;;;;;;12.98;7.97;;;;;;;-144.26;100.00;64884.69;5012544;28;20034;-81
2024/01/29 00:57:13;;;;;;;13.20;8.98;;;;;;;-144.26;100.00;64884.69;5022411;23;20052;-80
2024/01/29 00:59:51;;;;;;;11.88;8.07;;;;;;;-144.26;100.00;64884.69;5032196;28;20021;-81
2024/01/29 01:02:16;;;;;;;12.30;8.23;;;;;;;-144.26;100.00;64884.69;5032380;28;20025;-81
2024/01/29 01:04:48;;;;;;;12.15;8.00;;;;;;;-144.26;100.00;64884.69;5032106;28;20040;-81
2024/01/29 01:07:16;;;;;;;11.18;8.02;;;;;;;-144.26;100.00;64884.69;5014324;28;20524;-81
2024/01/29 01:09:45;;;;;;;11.00;8.25;;;;;;;-144.26;100.00;64884.69;5038504;23;20412;-81
2024/01/29 01:12:16;;;;;;;12.23;8.45;;;;;;;-144.26;100.00;64884.69;5032243;28;20078;-81
2024/01/29 01:14:54;;;;;;;12.00;8.18;;;;;;;-144.26;100.00;64884.69;5032185;28;20022;-81
2024/01/29 01:17:22;;;;;;;12.30;7.95;;;;;;;-144.26;100.00;64884.69;5032564;28;20037;-81
2024/01/29 01:19:54;;;;;;;11.70;7.78;;;;;;;-144.26;100.00;64884.69;5032292;28;20025;-81
2024/01/29 01:22:33;;;;;;;;;;;;;;;-144.26;100.00;64884.69;5032479;28;20104;-81
2024/01/29 01:25:11;;;;;;;10.93;8.02;;;;;;;-144.26;100.00;64884.69;5031902;28;20003;-81
2024/01/29 01:27:36;;;;;;;12.57;9.00;;;;;;;-144.26;100.00;64884.69;4998243;28;20485;-81
2024/01/29 01:30:08;;;;;;;11.90;8.30;;;;;;;-144.26;100.00;64884.69;5014187;28;20032;-81
2024/01/29 01:32:34;;;;;;;12.85;8.48;;;;;;;-144.26;100.00;64884.69;5014173;28;20029;-81
2024/01/29 01:35:02;;;;;;;11.45;8.55;;;;;;;-144.26;100.00;64884.69;5032276;28;20036;-81
2024/01/29 01:37:31;;;;;;;10.23;8.50;;;;;;;-144.26;100.00;64884.69;5030184;28;20037;-81
2024/01/29 01:39:57;;;;;;;11.93;8.68;;;;;;;-144.26;100.00;64884.69;5014287;28;20029;-81
2024/01/29 01:42:22;;;;;;;12.60;7.95;;;;;;;-144.26;100.00;64884.69;5032055;28;20477;-81
2024/01/29 01:44:48;;;;;;;12.10;8.48;;;;;;;-144.26;100.00;64884.69;5031841;28;20075;-81
2024/01/29 01:47:13;;;;;;;10.85;8.05;;;;;;;-144.26;100.00;64884.69;5032002;28;20022;-81
2024/01/29 01:49:40;;;;;;;10.95;8.73;;;;;;;-144.26;100.00;64884.69;5032042;28;20063;-81
2024/01/29 01:52:07;;;;;;;11.40;8.50;;;;;;;-144.26;100.00;64884.69;5032014;28;20044;-81
2024/01/29 01:54:33;;;;;;;12.40;8.80;;;;;;;-144.26;100.00;64884.69;5031425;28;20036;-81
2024/01/29 01:56:59;;;;;;;11.50;9.05;;;;;;;-144.26;100.00;64884.69;5032193;28;20029;-81
2024/01/29 01:59:25;;;;;;;12.27;9.07;;;;;;;-144.26;100.00;64884.69;5031740;28;20465;-81
2024/01/29 02:01:52;;;;;;;12.10;8.98;;;;;;;-144.26;100.00;64884.69;5031625;28;20033;-81
2024/01/29 02:04:18;;;;;;;13.05;8.50;;;;;;;-144.26;100.00;64884.69;5031735;28;20078;-81
2024/01/29 02:06:44;;;;;;;11.95;9.13;;;;;;;-144.26;100.00;64884.69;5031565;28;20104;-81
2024/01/29 02:09:09;;;;;;;10.75;8.55;;;;;;;-144.26;100.00;64884.69;5031437;28;20022;-81
2024/01/29 02:11:35;;;;;;;12.15;8.82;;;;;;;-144.26;100.00;64884.69;5032698;28;20055;-81
2024/01/29 02:14:00;;;;;;;12.93;9.38;;;;;;;-144.26;100.00;64884.69;5035267;28;20457;-81
2024/01/29 02:16:26;;;;;;;12.35;9.35;;;;;;;-144.26;100.00;64884.69;5035070;28;20025;-81
2024/01/29 02:18:51;;;;;;;13.32;9.02;;;;;;;-144.26;100.00;64884.69;5035030;28;20030;-82
2024/01/29 02:21:22;;;;;;;13.30;9.20;;;;;;;-144.26;100.00;64884.69;5035144;28;20381;-82
2024/01/29 02:26:32;;;;;;;12.85;8.90;;;;;;;-144.26;100.00;64884.69;5034748;28;20057;-82
2024/01/29 02:28:59;;;;;;;11.45;8.25;;;;;;;-144.26;100.00;64884.69;5035089;28;20033;-83
2024/01/29 02:31:26;;;;;;;14.32;9.40;;;;;;;-144.26;100.00;64884.69;5034808;28;20029;-83
2024/01/29 02:33:52;;;;;;;11.68;8.95;;;;;;;-144.26;100.00;64884.69;5034809;28;20033;-81
2024/01/29 02:36:17;;;;;;;14.00;9.38;;;;;;;-144.26;100.00;64884.69;5034110;28;20132;-81
2024/01/29 02:38:42;;;;;;;11.35;8.68;;;;;;;-144.26;100.00;64884.69;5034834;28;20041;-81
2024/01/29 02:41:11;;;;;;;13.27;8.93;;;;;;;-144.26;100.00;64884.69;5034875;28;20100;-83
2024/01/29 02:43:43;;;;;;;13.05;9.20;;;;;;;-144.26;100.00;64884.69;5034954;28;20033;-80
2024/01/29 02:46:08;;;;;;;13.68;9.40;;;;;;;-144.26;100.00;64884.69;5034720;28;20025;-83
2024/01/29 02:48:33;;;;;;;13.23;9.25;;;;;;;-144.26;100.00;64884.69;5016402;28;20037;-81
2024/01/29 02:50:59;;;;;;;11.20;8.75;;;;;;;-144.26;100.00;64884.69;5034821;28;20021;-81
2024/01/29 02:53:24;;;;;;;13.48;9.35;;;;;;;-144.26;100.00;64884.69;5034309;28;20049;-81
2024/01/29 02:55:49;;;;;;;13.20;9.25;;;;;;;-144.26;100.00;64884.69;5034509;28;20112;-81
2024/01/29 02:58:14;;;;;;;12.85;8.98;;;;;;;-144.26;100.00;64884.69;5034297;28;20037;-81
2024/01/29 03:00:40;;;;;;;13.57;9.07;;;;;;;-144.26;100.00;64884.69;5033095;28;20025;-81
2024/01/29 03:03:05;;;;;;;15.35;9.55;;;;;;;-144.26;100.00;64884.69;5034083;28;20033;-81
2024/01/29 03:05:31;;;;;;;13.50;9.35;;;;;;;-144.26;100.00;64884.69;5016697;28;20091;-81
2024/01/29 03:07:56;;;;;;;12.32;9.07;;;;;;;-144.26;100.00;64884.69;5034066;28;20022;-81
2024/01/29 03:10:21;;;;;;;12.45;9.23;;;;;;;-144.26;100.00;64884.69;5016206;28;20053;-81
2024/01/29 03:12:47;;;;;;;13.13;9.30;;;;;;;-144.26;100.00;64884.69;5034357;28;20025;-82
2024/01/29 03:15:13;;;;;;;13.50;9.23;;;;;;;-144.26;100.00;64884.69;5034017;28;20116;-81
2024/01/29 03:17:38;;;;;;;14.15;9.45;;;;;;;-144.26;100.00;64884.69;5034049;28;20380;-82
2024/01/29 03:20:04;;;;;;;13.15;9.73;;;;;;;-144.26;100.00;64884.69;5034189;28;20104;-81
2024/01/29 03:22:29;;;;;;;13.32;10.30;;;;;;;-144.26;100.00;64884.69;5033488;28;20084;-81
2024/01/29 03:24:54;;;;;;;13.23;9.82;;;;;;;-144.26;100.00;64884.69;5033155;28;20054;-81
2024/01/29 03:27:20;;;;;;;11.68;9.73;;;;;;;-144.26;100.00;64884.69;5033850;28;20037;-81
2024/01/29 03:29:45;;;;;;;13.32;9.48;;;;;;;-144.26;100.00;64884.69;5033725;28;20083;-81
2024/01/29 03:32:11;;;;;;;15.60;9.98;;;;;;;-144.26;100.00;64884.69;5033956;28;20092;-81
2024/01/29 03:34:40;;;;;;;12.27;9.50;;;;;;;-144.26;100.00;64884.69;5033810;28;20420;-81
2024/01/29 03:37:06;;;;;;;14.27;9.70;;;;;;;-144.26;100.00;64884.69;5016064;28;20037;-81
2024/01/29 03:39:31;;;;;;;13.70;9.68;;;;;;;-144.26;100.00;64884.69;5033745;28;20029;-81
2024/01/29 03:41:56;;;;;;;13.18;9.52;;;;;;;-144.26;100.00;64884.69;5033487;28;20014;-81
2024/01/29 03:44:21;;;;;;;12.80;9.50;;;;;;;-144.26;100.00;64884.69;5015279;28;20408;-81
2024/01/29 03:46:47;;;;;;;13.18;9.40;;;;;;;-144.26;100.00;64884.69;5033518;28;20052;-81
2024/01/29 03:49:12;;;;;;;12.88;9.70;;;;;;;-144.26;100.00;64884.69;5033614;28;20159;-81
2024/01/29 03:51:37;;;;;;;14.35;9.68;;;;;;;-144.26;100.00;64884.69;5033383;28;20017;-81
2024/01/29 03:54:03;;;;;;;13.13;9.73;;;;;;;-144.26;100.00;64884.69;5033324;28;20052;-82
2024/01/29 03:56:28;;;;;;;13.00;10.27;;;;;;;-144.26;100.00;64884.69;5033158;28;20052;-81
2024/01/29 03:58:53;;;;;;;14.40;10.40;;;;;;;-144.26;100.00;64884.69;5033291;28;20037;-82
2024/01/29 04:01:26;;;;;;;11.95;9.25;;;;;;;-144.26;100.00;64884.69;5033271;28;20029;-81
2024/01/29 04:04:09;;;;;;;14.35;10.65;;;;;;;-144.26;100.00;64884.69;5033283;28;20033;-81
2024/01/29 04:06:35;;;;;;;14.35;10.30;;;;;;;-144.26;100.00;64884.69;5087076;23;20053;-82
2024/01/29 04:09:09;;;;;;;14.43;10.18;;;;;;;-144.26;100.00;64884.69;5033067;28;20546;-82
2024/01/29 04:11:37;;;;;;;13.52;9.65;;;;;;;-144.26;100.00;64884.69;5032770;28;20477;-82
2024/01/29 04:14:21;;;;;;;14.88;10.35;;;;;;;-144.26;100.00;64884.69;5032883;28;20057;-81
2024/01/29 04:16:47;;;;;;;12.77;9.95;;;;;;;-144.26;100.00;64884.69;5033271;28;20021;-81
2024/01/29 04:19:25;;;;;;;15.75;9.52;;;;;;;-144.26;100.00;64884.69;5033081;28;20021;-82
2024/01/29 04:21:59;;;;;;;16.83;10.50;;;;;;;-144.26;100.00;64884.69;5033015;28;20067;-82
2024/01/29 04:24:31;;;;;;;14.63;9.73;;;;;;;-144.26;100.00;64884.69;5014647;28;20076;-81
2024/01/29 04:27:08;;;;;;;14.63;9.50;;;;;;;-144.26;100.00;64884.69;5032573;28;20056;-82
2024/01/29 04:29:33;;;;;;;13.55;10.10;;;;;;;-144.26;100.00;64884.69;5032889;28;20056;-82
2024/01/29 04:31:59;;;;;;;13.35;9.70;;;;;;;-144.26;100.00;64884.69;5032737;28;20045;-82
2024/01/29 04:34:24;;;;;;;13.27;10.05;;;;;;;-144.26;100.00;64884.69;5032205;28;20030;-81
2024/01/29 04:36:53;;;;;;;13.38;10.45;;;;;;;-144.26;100.00;64884.69;5032771;28;20029;-81
2024/01/29 04:39:18;;;;;;;13.75;10.30;;;;;;;-144.26;100.00;64884.69;5032683;28;20026;-81
2024/01/29 04:41:43;;;;;;;13.50;10.50;;;;;;;-144.26;100.00;64884.69;5032576;28;20481;-81
2024/01/29 04:44:18;;;;;;;15.35;9.80;;;;;;;-144.26;100.00;64884.69;5014771;28;20051;-81
2024/01/29 04:46:49;;;;;;;14.20;9.90;;;;;;;-144.26;100.00;64884.69;5032326;28;20092;-81
2024/01/29 04:49:17;;;;;;;13.65;10.15;;;;;;;-144.26;100.00;64884.69;5015195;28;20090;-81
2024/01/29 04:51:42;;;;;;;14.43;9.57;;;;;;;-144.26;100.00;64884.69;5014800;28;20052;-81
2024/01/29 04:54:07;;;;;;;13.52;10.30;;;;;;;-144.26;100.00;64884.69;5032380;28;20477;-81
2024/01/29 04:56:42;;;;;;;14.00;10.18;;;;;;;-144.26;100.00;64884.69;5032628;28;20170;-81
2024/01/29 04:59:19;;;;;;;13.75;9.93;;;;;;;-144.26;100.00;64884.69;5032225;28;20033;-81
2024/01/29 05:01:59;;;;;;;11.93;9.68;;;;;;;-144.26;100.00;64884.69;5032341;28;20469;-81
2024/01/29 05:04:24;;;;;;;16.38;12.23;;;;;;;-144.26;100.00;64884.69;5032069;28;20072;-81
2024/01/29 05:07:05;;;;;;;15.02;10.95;;;;;;;-144.26;100.00;64884.69;5031910;28;20085;-80
2024/01/29 05:09:30;;;;;;;14.70;11.80;;;;;;;-144.26;100.00;64884.69;5032060;28;20352;-81
2024/01/29 05:12:02;;;;;;;13.73;10.88;;;;;;;-144.26;100.00;64884.69;5014332;28;20101;-81
2024/01/29 05:14:30;;;;;;;22.95;16.25;;;;;;;-144.26;100.00;64884.69;5031928;28;20116;-81
2024/01/29 05:16:55;;;;;;;15.95;11.57;;;;;;;-144.26;100.00;64884.69;5014644;28;20041;-81
2024/01/29 05:19:21;;;;;;;16.33;11.52;;;;;;;-144.26;100.00;64884.69;5032328;28;20071;-81
2024/01/29 05:21:48;;;;;;;24.52;16.77;;;;;;;-144.26;100.00;64884.69;5032291;28;20117;-81
2024/01/29 05:24:13;;;;;;;19.65;13.57;;;;;;;-144.26;100.00;64884.69;5014463;28;20025;-81
2024/01/29 05:26:45;;;;;;;24.75;17.88;;;;;;;-144.26;100.00;64884.69;5031909;28;20075;-82
2024/01/29 05:29:16;;;;;;;;;;;;;;;-144.26;100.00;64884.69;5032601;28;20486;-82
2024/01/29 05:31:41;;;;;;;25.60;16.83;;;;;;;-144.26;100.00;64884.69;5013762;28;19917;-81
2024/01/29 05:34:16;;;;;;;21.00;15.30;;;;;;;-144.26;100.00;64884.69;5032090;28;20164;-82
2024/01/29 05:36:41;;;;;;;23.58;17.23;;;;;;;-144.26;100.00;64884.69;5038639;23;20459;-82
2024/01/29 05:39:07;;;;;;;23.88;17.05;;;;;;;-144.26;100.00;64884.69;5014238;28;20154;-82
2024/01/29 05:41:42;;;;;;;24.73;17.85;;;;;;;-144.26;100.00;64884.69;5032158;28;20044;-82
2024/01/29 05:44:08;;;;;;;24.85;18.05;;;;;;;-144.26;100.00;64884.69;5086161;23;20049;-81
2024/01/29 05:46:34;;;;;;;21.63;16.00;;;;;;;-144.26;100.00;64884.69;5033104;28;20033;-82
2024/01/29 05:48:59;;;;;;;20.13;14.93;;;;;;;-144.26;100.00;64884.69;5035668;28;20067;-81
2024/01/29 05:51:24;;;;;;;17.50;13.98;;;;;;;-144.26;100.00;64884.69;5017818;28;20077;-81
2024/01/29 05:53:50;;;;;;;18.75;14.75;;;;;;;-144.26;100.00;64884.69;5035670;28;20028;-82
2024/01/29 05:56:17;;;;;;;26.17;14.15;;;;;;;-144.26;100.00;64884.69;5035517;28;20349;-82
2024/01/29 05:58:45;;;;;;;18.52;12.32;;;;;;;-144.26;100.00;64884.69;5035497;28;20024;-82
2024/01/29 06:01:10;;;;;;;18.42;13.30;;;;;;;-144.26;100.00;64884.69;5035773;28;20049;-82
2024/01/29 06:03:36;;;;;;;15.68;12.13;;;;;;;-144.26;100.00;64884.69;5032012;28;20515;-82
2024/01/29 06:06:01;;;;;;;16.27;12.23;;;;;;;-144.26;100.00;64884.69;5035507;28;20013;-82
2024/01/29 06:08:26;;;;;;;16.92;11.55;;;;;;;-144.26;100.00;64884.69;5035387;28;20033;-82
2024/01/29 06:10:55;;;;;;;17.90;11.07;;;;;;;-144.26;100.00;64884.69;5035386;28;20022;-82
2024/01/29 06:13:30;;;;;;;16.95;11.95;;;;;;;-144.26;100.00;64884.69;5035098;28;20053;-82
2024/01/29 06:16:10;;;;;;;16.55;11.93;;;;;;;-144.26;100.00;64884.69;5035153;28;20054;-82
2024/01/29 06:18:36;;;;;;;16.38;11.98;;;;;;;-144.26;100.00;64884.69;5034978;28;20021;-80
2024/01/29 06:21:13;;;;;;;16.13;11.57;;;;;;;-144.26;100.00;64884.69;5035312;28;20032;-82
2024/01/29 06:23:39;;;;;;;14.15;10.52;;;;;;;-144.26;100.00;64884.69;5035185;28;20079;-82
2024/01/29 06:26:04;;;;;;;14.15;9.70;;;;;;;-144.26;100.00;64884.69;5035417;28;20033;-81
2024/01/29 06:28:29;;;;;;;11.40;8.95;;;;;;;-144.26;100.00;64884.69;5016951;28;20048;-82
2024/01/29 06:30:55;;;;;;;13.88;9.45;;;;;;;-144.26;100.00;64884.69;5034763;28;20950;-83
2024/01/29 06:33:21;;;;;;;13.02;10.02;;;;;;;-144.26;100.00;64884.69;5034829;28;20481;-82
2024/01/29 06:35:46;;;;;;;16.02;10.07;;;;;;;-144.26;100.00;64884.69;5035050;28;20041;-82
2024/01/29 06:38:12;;;;;;;13.85;9.73;;;;;;;-144.26;100.00;64884.69;5034981;28;20025;-82
2024/01/29 06:40:37;;;;;;;13.50;9.77;;;;;;;-144.26;100.00;64884.69;5034811;28;20354;-82
2024/01/29 06:43:03;;;;;;;12.35;9.30;;;;;;;-144.26;100.00;64884.69;5034788;28;20025;-82
2024/01/29 06:45:30;;;;;;;13.13;10.48;;;;;;;-144.26;100.00;64884.69;5034464;28;20049;-82
2024/01/29 06:47:56;;;;;;;13.23;9.60;;;;;;;-144.26;100.00;64884.69;5034518;28;20032;-82
2024/01/29 06:50:22;;;;;;;13.38;9.95;;;;;;;-144.26;100.00;64884.69;5034583;28;20075;-83
2024/01/29 06:52:47;;;;;;;12.02;9.40;;;;;;;-144.26;100.00;64884.69;5034519;28;20033;-82
2024/01/29 06:55:12;;;;;;;14.00;9.20;;;;;;;-144.26;100.00;64884.69;5034814;28;20034;-82
2024/01/29 06:57:38;;;;;;;12.43;9.43;;;;;;;-144.26;100.00;64884.69;5034239;28;20025;-82
2024/01/29 07:00:04;;;;;;;10.65;8.70;;;;;;;-144.26;100.00;64884.69;5034567;28;20032;-82
2024/01/29 07:02:29;;;;;;;14.40;9.50;;;;;;;-144.26;100.00;64884.69;5034379;28;20030;-82
2024/01/29 07:04:55;;;;;;;13.18;9.77;;;;;;;-144.26;100.00;64884.69;5034501;28;20033;-86
2024/01/29 07:07:20;;;;;;;13.38;9.25;;;;;;;-144.26;100.00;64884.69;5034201;28;20075;-82
2024/01/29 07:09:45;;;;;;;12.00;8.93;;;;;;;-144.26;100.00;64884.69;5034224;28;20045;-82
2024/01/29 07:12:14;;;;;;;12.55;9.93;;;;;;;-144.26;100.00;64884.69;5034186;28;20025;-82
2024/01/29 07:14:42;;;;;;;13.20;9.68;;;;;;;-144.26;100.00;64884.69;5033930;28;20037;-83
2024/01/29 07:17:08;;;;;;;13.63;9.68;;;;;;;-144.26;100.00;64884.69;5034376;28;20033;-81
2024/01/29 07:19:33;;;;;;;12.07;9.38;;;;;;;-144.26;100.00;64884.69;5034309;28;20388;-82
2024/01/29 07:22:04;;;;;;;12.68;9.38;;;;;;;-144.26;100.00;64884.69;5034111;28;20021;-82
2024/01/29 07:24:32;;;;;;;13.25;9.55;;;;;;;-144.26;100.00;64884.69;5033842;28;20032;-82
2024/01/29 07:27:01;;;;;;;13.60;9.98;;;;;;;-144.26;100.00;64884.69;5034233;28;20097;-82
2024/01/29 07:29:31;;;;;;;13.95;9.52;;;;;;;-144.26;100.00;64884.69;5033537;28;20017;-82
2024/01/29 07:32:03;;;;;;;14.23;10.13;;;;;;;-144.26;100.00;64884.69;5033974;28;20053;-81
2024/01/29 07:34:37;;;;;;;12.45;9.50;;;;;;;-144.26;100.00;64884.69;5033539;28;20033;-82
2024/01/29 07:37:03;;;;;;;12.77;9.88;;;;;;;-144.26;100.00;64884.69;5033644;28;20427;-82
2024/01/29 07:39:29;;;;;;;13.43;9.73;;;;;;;-144.26;100.00;64884.69;5033801;28;20021;-82
2024/01/29 07:41:54;;;;;;;15.13;9.60;;;;;;;-144.26;100.00;64884.69;5031380;28;20023;-80
2024/01/29 07:44:20;;;;;;;14.77;10.38;;;;;;;-144.26;100.00;64884.69;5034195;28;20033;-79
2024/01/29 07:46:50;;;;;;;13.50;9.50;;;;;;;-144.26;100.00;64884.69;5033666;28;20381;-83
2024/01/29 07:49:27;;;;;;;13.63;9.75;;;;;;;-144.26;100.00;64884.69;5051802;23;20053;-83
2024/01/29 07:51:53;;;;;;;13.48;9.93;;;;;;;-144.26;100.00;64884.69;5053277;28;20108;-82
2024/01/29 07:54:25;;;;;;;14.10;9.90;;;;;;;-144.26;100.00;64884.69;5053076;28;20049;-80
2024/01/29 07:57:03;;;;;;;13.55;10.20;;;;;;;-144.26;100.00;64884.69;5053133;28;20086;-82
2024/01/29 07:59:37;;;;;;;16.02;10.63;;;;;;;-144.26;100.00;64884.69;5053400;28;20040;-80
2024/01/29 08:02:20;;;;;;;13.82;10.00;;;;;;;-144.26;100.00;64884.69;5053090;28;20039;-80
2024/01/29 08:04:54;;;;;;;13.82;10.45;;;;;;;-144.26;100.00;64884.69;5053003;28;20025;-81
2024/01/29 08:07:19;;;;;;;16.30;10.35;;;;;;;-144.26;100.00;64884.69;5034785;28;20040;-80
2024/01/29 08:09:46;;;;;;;14.38;10.38;;;;;;;-144.26;100.00;64884.69;5052562;28;20029;-79
2024/01/29 08:12:11;;;;;;;13.63;9.18;;;;;;;-144.26;100.00;64884.69;5052855;28;20044;-77
2024/01/29 08:14:36;;;;;;;14.07;10.52;;;;;;;-144.26;100.00;64884.69;5052822;28;20041;-81
2024/01/29 08:17:02;;;;;;;12.82;10.07;;;;;;;-144.26;100.00;64884.69;5052619;28;20037;-80
2024/01/29 08:19:27;;;;;;;12.90;9.77;;;;;;;-144.26;100.00;64884.69;5052789;28;20021;-81
2024/01/29 08:21:53;;;;;;;12.85;9.32;;;;;;;-144.26;100.00;64884.69;5053007;28;20399;-80
2024/01/29 08:24:18;;;;;;;11.35;9.20;;;;;;;-144.26;100.00;64884.69;5051405;28;20396;-80
2024/01/29 08:26:51;;;;;;;13.80;9.00;;;;;;;-144.26;100.00;64884.69;5050153;23;20417;-80
2024/01/29 08:29:20;;;;;;;13.45;8.77;;;;;;;-144.26;100.00;64884.69;5032539;28;20025;-81
2024/01/29 08:31:45;;;;;;;14.68;9.45;;;;;;;-144.26;100.00;64884.69;5032733;28;20044;-80
2024/01/29 08:34:10;;;;;;;15.27;8.70;;;;;;;-144.26;100.00;64884.69;5032787;28;20364;-81
2024/01/29 08:36:36;;;;;;;11.35;8.68;;;;;;;-144.26;100.00;64884.69;5026937;28;20420;-80
2024/01/29 08:39:03;;;;;;;11.82;8.90;;;;;;;-144.26;100.00;64884.69;5013322;28;20143;-82
2024/01/29 08:41:31;;;;;;;14.18;8.52;;;;;;;-144.26;100.00;64884.69;5013092;28;20432;-81
2024/01/29 08:43:56;;;;;;;11.93;9.15;;;;;;;-144.26;100.00;64884.69;5012685;28;20061;-81
2024/01/29 08:46:22;;;;;;;12.77;8.43;;;;;;;-144.26;100.00;64884.69;5012531;28;20060;-83
2024/01/29 08:48:47;;;;;;;13.10;9.13;;;;;;;-144.26;100.00;64884.69;5012710;28;20022;-82
2024/01/29 08:51:12;;;;;;;11.43;8.85;;;;;;;-144.26;100.00;64884.69;5012621;28;20022;-80
2024/01/29 08:53:37;;;;;;;13.27;9.23;;;;;;;-144.26;100.00;64884.69;5012404;28;20034;-79
2024/01/29 08:58:38;;;;;;;12.95;9.40;;;;;;;-144.26;100.00;64884.69;1023222;26;21172;-81
2024/01/29 09:01:03;;;;;;;12.20;9.30;;;;;;;-144.26;100.00;64884.69;5012503;28;20125;-81
2024/01/29 09:03:29;;;;;;;12.07;9.15;;;;;;;-144.26;100.00;64884.69;4994809;28;20057;-79
2024/01/29 09:05:54;;;;;;;12.70;9.43;;;;;;;-144.26;100.00;64884.69;5012470;28;20120;-81
2024/01/29 09:08:20;;;;;;;12.18;8.45;;;;;;;-144.26;100.00;64884.69;5012683;28;20036;-80
2024/01/29 09:10:55;;;;;;;11.00;8.75;;;;;;;-144.26;100.00;64884.69;5099883;23;20467;-78
2024/01/29 09:13:26;;;;;;;12.13;8.68;;;;;;;-144.26;100.00;64884.69;5051810;28;20487;-80
2024/01/29 09:15:52;;;;;;;12.20;8.95;;;;;;;-144.26;100.00;64884.69;5051880;28;20055;-79
2024/01/29 09:18:17;;;;;;;11.75;8.55;;;;;;;-144.26;100.00;64884.69;5051999;28;20516;-80
2024/01/29 09:20:42;;;;;;;12.10;8.48;;;;;;;-144.26;100.00;64884.69;5051274;23;20053;-80
2024/01/29 09:23:08;;;;;;;11.68;8.73;;;;;;;-144.26;100.00;64884.69;5035979;28;20033;-80
2024/01/29 09:25:33;;;;;;;11.80;9.10;;;;;;;-144.26;100.00;64884.69;5036255;28;20106;-76
2024/01/29 09:27:58;;;;;;;11.05;8.20;;;;;;;-144.26;100.00;64884.69;5036236;28;20033;-79
2024/01/29 09:30:24;;;;;;;11.80;8.23;;;;;;;-144.26;100.00;64884.69;5036067;28;20021;-79
2024/01/29 09:32:49;;;;;;;10.93;8.35;;;;;;;-144.26;100.00;64884.69;5035893;28;20021;-80
2024/01/29 09:35:15;;;;;;;12.20;8.65;;;;;;;-144.26;100.00;64884.69;5036112;28;20036;-80
2024/01/29 09:37:41;;;;;;;11.85;8.57;;;;;;;-144.26;100.00;64884.69;5035895;28;20402;-81
2024/01/29 09:40:11;;;;;;;12.70;8.18;;;;;;;-144.26;100.00;64884.69;5035948;28;20017;-81
2024/01/29 09:42:39;;;;;;;14.18;8.43;;;;;;;-144.26;100.00;64884.69;5035905;28;20029;-80
2024/01/29 09:45:07;;;;;;;10.60;8.07;;;;;;;-144.26;100.00;64884.69;5035916;28;20037;-80
2024/01/29 09:47:35;;;;;;;12.73;8.02;;;;;;;-144.26;100.00;64884.69;5035840;28;20026;-80
2024/01/29 09:50:01;;;;;;;12.73;8.30;;;;;;;-144.26;100.00;64884.69;5035698;28;20377;-80
2024/01/29 09:52:27;;;;;;;11.65;7.75;;;;;;;-144.26;100.00;64884.69;5035707;28;20457;-79
2024/01/29 09:54:53;;;;;;;11.50;7.82;;;;;;;-144.26;100.00;64884.69;5035663;28;20133;-79
2024/01/29 09:57:18;;;;;;;11.95;8.70;;;;;;;-144.26;100.00;64884.69;5042583;23;20053;-78
2024/01/29 09:59:44;;;;;;;10.52;7.85;;;;;;;-144.26;100.00;64884.69;5035450;28;20036;-79
2024/01/29 10:02:14;;;;;;;11.82;7.55;;;;;;;-144.26;100.00;64884.69;5035635;28;20104;-80
2024/01/29 10:04:39;;;;;;;12.20;8.52;;;;;;;-144.26;100.00;64884.69;5034971;28;20026;-77
2024/01/29 10:07:04;;;;;;;11.25;8.25;;;;;;;-144.26;100.00;64884.69;5035031;28;20041;-79
2024/01/29 10:09:30;;;;;;;13.90;9.50;;;;;;;-144.26;100.00;64884.69;5017571;28;20049;-80
2024/01/29 10:11:55;;;;;;;12.23;8.50;;;;;;;-144.26;100.00;64884.69;5035569;28;20025;-79
2024/01/29 10:14:20;;;;;;;11.10;8.25;;;;;;;-144.26;100.00;64884.69;5035220;28;20476;-78
2024/01/29 10:16:48;;;;;;;12.65;8.93;;;;;;;-144.26;100.00;64884.69;5035056;28;20025;-79
2024/01/29 10:19:14;;;;;;;11.73;8.57;;;;;;;-144.26;100.00;64884.69;5035112;28;20022;-77
2024/01/29 10:21:43;;;;;;;11.60;8.23;;;;;;;-144.26;100.00;64884.69;5017334;28;20277;-81
2024/01/29 10:24:13;;;;;;;12.88;8.68;;;;;;;-144.26;100.00;64884.69;5035287;28;20026;-81
2024/01/29 10:26:42;;;;;;;11.55;8.82;;;;;;;-144.26;100.00;64884.69;5035253;28;20115;-81
2024/01/29 10:29:09;;;;;;;14.32;9.00;;;;;;;-144.26;100.00;64884.69;5034899;28;20021;-80
2024/01/29 10:31:35;;;;;;;11.55;8.45;;;;;;;-144.26;100.00;64884.69;5034972;28;20041;-81
2024/01/29 10:34:02;;;;;;;12.40;9.02;;;;;;;-144.26;100.00;64884.69;5040954;23;20053;-79
2024/01/29 10:36:28;;;;;;;11.05;9.15;;;;;;;-144.26;100.00;64884.69;5035073;28;20451;-78
2024/01/29 10:38:53;;;;;;;13.05;8.93;;;;;;;-144.26;100.00;64884.69;5034948;28;20022;-78
2024/01/29 10:41:22;;;;;;;12.07;7.93;;;;;;;-144.26;100.00;64884.69;5017040;28;20385;-79
2024/01/29 10:43:48;;;;;;;11.93;9.07;;;;;;;-144.26;100.00;64884.69;5016430;28;20396;-79
2024/01/29 10:46:23;;;;;;;12.65;8.80;;;;;;;-144.26;100.00;64884.69;5033423;28;20018;-79
2024/01/29 10:48:50;;;;;;;12.13;8.50;;;;;;;-144.26;100.00;64884.69;5035088;28;20022;-78
2024/01/29 10:51:16;;;;;;;11.73;8.70;;;;;;;-144.26;100.00;64884.69;5034643;28;20029;-79
2024/01/29 10:53:42;;;;;;;13.95;8.43;;;;;;;-144.26;100.00;64884.69;5034349;28;20029;-77
2024/01/29 10:56:09;;;;;;;11.95;9.25;;;;;;;-144.26;100.00;64884.69;5034626;28;20022;-77
2024/01/29 10:58:36;;;;;;;12.13;9.07;;;;;;;-144.26;100.00;64884.69;5034441;28;20083;-78
2024/01/29 11:01:03;;;;;;;12.70;9.60;;;;;;;-144.26;100.00;64884.69;5034534;28;20100;-77
2024/01/29 11:03:29;;;;;;;12.30;8.63;;;;;;;-144.26;100.00;64884.69;5034159;28;20079;-76
2024/01/29 11:06:23;;;;;;;13.88;9.43;;;;;;;-144.26;100.00;64884.69;5033037;28;20373;-76